Time,TemperatureF,DewpointF,PressureIn,WindDirection,WindDirectionDegrees,WindSpeedMPH,WindSpeedGustMPH,Humidity,HourlyPrecipIn,Conditions,Clouds,dailyrainin,SoftwareType,DateUTC
2013-01-20 00:05:00,35.9,27.4,30.17,NE,43,0.0,0.0,71,0.00,,,0.00,WeatherCatV1.10B1784,2013-01-20 05:05:00,
2013-01-20 00:10:00,35.8,27.3,30.17,NE,43,0.0,0.0,71,0.00,,,0.00,WeatherCatV1.10B1784,2013-01-20 05:10:00,
2013-01-20 00:15:00,35.7,27.6,30.17,NE,43,0.0,0.0,72,0.00,,,0.00,WeatherCatV1.10B1784,2013-01-20 05:15:00,
2013-01-20 00:20:00,35.6,26.5,30.17,NE,43,0.0,0.0,69,0.00,,,0.00,WeatherCatV1.10B1784,2013-01-20 05:20:00,
2013-01-20 00:25:00,35.6,26.1,30.16,NE,43,0.0,0.0,68,0.00,,,0.00,WeatherCatV1.10B1784,2013-01-20 05:25:00,
2013-01-20 00:30:00,35.6,27.5,30.16,NE,43,0.0,0.0,72,0.00,,,0.00,WeatherCatV1.10B1784,2013-01-20 05:30:00,
2013-01-20 00:35:00,35.6,27.1,30.16,NE,43,0.0,0.0,71,0.00,,,0.00,WeatherCatV1.10B1784,2013-01-20 05:35:00,
2013-01-20 00:40:00,35.5,27.4,30.16,NE,43,0.0,0.0,72,0.00,,,0.00,WeatherCatV1.10B1784,2013-01-20 05:40:00,
2013-01-20 00:45:00,35.3,27.5,30.16,NE,43,0.0,0.0,73,0.00,,,0.00,WeatherCatV1.10B1784,2013-01-20 05:45:00,
2013-01-20 00:50:00,35.2,27.8,30.16,NE,43,0.0,0.0,74,0.00,,,0.00,WeatherCatV1.10B1784,2013-01-20 05:50:00,
2013-01-20 00:55:00,35.0,27.2,30.16,NE,43,0.0,0.0,73,0.00,,,0.00,WeatherCatV1.10B1784,2013-01-20 05:55:00,
2013-01-20 01:00:00,34.9,27.5,30.17,NE,43,0.0,0.0,74,0.00,,,0.00,WeatherCatV1.10B1784,2013-01-20 06:00:00,
2013-01-20 01:05:00,34.6,27.2,30.16,NE,43,0.0,0.0,74,0.00,,,0.00,WeatherCatV1.10B1784,2013-01-20 06:05:00,
2013-01-20 01:10:00,34.3,27.2,30.16,NE,43,0.0,0.0,75,0.00,,,0.00,WeatherCatV1.10B1784,2013-01-20 06:10:00,
2013-01-20 01:15:00,34.1,27.3,30.16,NE,43,0.0,0.0,76,0.00,,,0.00,WeatherCatV1.10B1784,2013-01-20 06:15:00,
2013-01-20 01:20:00,33.8,27.7,30.16,NE,43,0.0,0.0,78,0.00,,,0.00,WeatherCatV1.10B1784,2013-01-20 06:20:00,
2013-01-20 01:25:00,33.6,27.2,30.16,NE,43,0.0,0.0,77,0.00,,,0.00,WeatherCatV1.10B1784,2013-01-20 06:25:00,
2013-01-20 01:30:00,33.3,27.2,30.16,NE,43,0.0,0.0,78,0.00,,,0.00,WeatherCatV1.10B1784,2013-01-20 06:30:00,
2013-01-20 01:35:00,33.0,27.2,30.16,NE,43,0.0,0.0,79,0.00,,,0.00,WeatherCatV1.10B1784,2013-01-20 06:35:00,
2013-01-20 01:40:00,32.8,27.3,30.16,NE,43,0.0,0.0,80,0.00,,,0.00,WeatherCatV1.10B1784,2013-01-20 06:40:00,
2013-01-20 01:45:00,32.6,26.8,30.16,NE,43,0.0,0.0,79,0.00,,,0.00,WeatherCatV1.10B1784,2013-01-20 06:45:00,
2013-01-20 01:50:00,32.5,27.3,30.16,NE,43,0.0,0.0,81,0.00,,,0.00,WeatherCatV1.10B1784,2013-01-20 06:50:00,
2013-01-20 01:55:00,32.5,27.6,30.16,NE,43,0.0,0.0,82,0.00,,,0.00,WeatherCatV1.10B1784,2013-01-20 06:55:00,
2013-01-20 02:00:00,32.4,27.2,30.15,NE,43,0.0,0.0,81,0.00,,,0.00,WeatherCatV1.10B1784,2013-01-20 07:00:00,
2013-01-20 02:05:00,32.3,27.1,30.16,WNW,285,0.0,1.0,81,0.00,,,0.00,WeatherCatV1.10B1784,2013-01-20 07:05:00,
2013-01-20 02:10:00,32.0,27.1,30.16,WNW,285,0.0,0.0,82,0.00,,,0.00,WeatherCatV1.10B1784,2013-01-20 07:10:00,
2013-01-20 02:15:00,31.8,27.2,30.16,WNW,285,0.0,0.0,83,0.00,,,0.00,WeatherCatV1.10B1784,2013-01-20 07:15:00,
2013-01-20 02:20:00,31.6,27.3,30.16,WNW,285,0.0,0.0,84,0.00,,,0.00,WeatherCatV1.10B1784,2013-01-20 07:20:00,
2013-01-20 02:25:00,31.4,27.1,30.16,WNW,285,0.0,0.0,84,0.00,,,0.00,WeatherCatV1.10B1784,2013-01-20 07:25:00,
2013-01-20 02:30:00,31.3,27.0,30.16,WNW,285,0.0,0.0,84,0.00,,,0.00,WeatherCatV1.10B1784,2013-01-20 07:30:00,
2013-01-20 02:35:00,31.5,27.2,30.16,WNW,285,0.0,0.0,84,0.00,,,0.00,WeatherCatV1.10B1784,2013-01-20 07:35:00,
2013-01-20 02:40:00,31.7,27.1,30.16,WNW,296,0.0,0.0,83,0.00,,,0.00,WeatherCatV1.10B1784,2013-01-20 07:40:00,
2013-01-20 02:45:00,31.9,27.6,30.15,WNW,296,0.0,0.0,84,0.00,,,0.00,WeatherCatV1.10B1784,2013-01-20 07:45:00,
2013-01-20 02:50:00,31.9,27.0,30.15,NNE,28,0.0,2.0,82,0.00,,,0.00,WeatherCatV1.10B1784,2013-01-20 07:50:00,
2013-01-20 02:55:00,32.2,27.0,30.16,NNE,28,0.0,0.0,81,0.00,,,0.00,WeatherCatV1.10B1784,2013-01-20 07:55:00,
2013-01-20 03:00:00,32.3,27.7,30.16,NNE,28,0.0,0.0,83,0.00,,,0.00,WeatherCatV1.10B1784,2013-01-20 08:00:00,
2013-01-20 03:05:00,32.0,27.4,30.15,NNE,28,0.0,0.0,83,0.00,,,0.00,WeatherCatV1.10B1784,2013-01-20 08:05:00,
2013-01-20 03:10:00,31.6,27.3,30.15,WNW,301,0.0,2.0,84,0.00,,,0.00,WeatherCatV1.10B1784,2013-01-20 08:10:00,
2013-01-20 03:15:00,31.2,26.9,30.15,West,263,0.0,2.0,84,0.00,,,0.00,WeatherCatV1.10B1784,2013-01-20 08:15:00,
2013-01-20 03:20:00,30.8,26.8,30.15,West,264,0.0,0.0,85,0.00,,,0.00,WeatherCatV1.10B1784,2013-01-20 08:20:00,
2013-01-20 03:25:00,30.4,26.4,30.15,West,264,0.0,0.0,85,0.00,,,0.00,WeatherCatV1.10B1784,2013-01-20 08:25:00,
2013-01-20 03:30:00,30.2,26.8,30.15,West,263,0.0,0.0,87,0.00,,,0.00,WeatherCatV1.10B1784,2013-01-20 08:30:00,
2013-01-20 03:35:00,30.1,27.0,30.15,West,264,0.0,0.0,88,0.00,,,0.00,WeatherCatV1.10B1784,2013-01-20 08:35:00,
2013-01-20 03:40:00,30.0,26.9,30.15,West,264,0.0,0.0,88,0.00,,,0.00,WeatherCatV1.10B1784,2013-01-20 08:40:00,
2013-01-20 03:45:00,29.9,26.8,30.15,NW,316,0.0,0.0,88,0.00,,,0.00,WeatherCatV1.10B1784,2013-01-20 08:45:00,
2013-01-20 03:50:00,30.2,26.0,30.15,NE,42,1.0,1.0,84,0.00,,,0.00,WeatherCatV1.10B1784,2013-01-20 08:50:00,
2013-01-20 03:55:00,31.3,25.6,30.15,East,93,2.0,2.0,79,0.00,,,0.00,WeatherCatV1.10B1784,2013-01-20 08:55:00,
2013-01-20 04:00:00,33.0,26.3,30.15,ENE,74,0.0,2.0,76,0.00,,,0.00,WeatherCatV1.10B1784,2013-01-20 09:00:00,
2013-01-20 04:05:00,33.9,26.2,30.14,ENE,74,2.0,3.0,73,0.00,,,0.00,WeatherCatV1.10B1784,2013-01-20 09:05:00,
2013-01-20 04:10:00,35.1,24.2,30.15,ESE,107,2.0,8.0,64,0.00,,,0.00,WeatherCatV1.10B1784,2013-01-20 09:10:00,
2013-01-20 04:15:00,35.7,25.8,30.15,East,86,1.0,2.0,67,0.00,,,0.00,WeatherCatV1.10B1784,2013-01-20 09:15:00,
2013-01-20 04:20:00,36.2,24.5,30.15,ESE,115,3.0,4.0,62,0.00,,,0.00,WeatherCatV1.10B1784,2013-01-20 09:20:00,
2013-01-20 04:25:00,36.6,25.6,30.15,NE,34,3.0,3.0,64,0.00,,,0.00,WeatherCatV1.10B1784,2013-01-20 09:25:00,
2013-01-20 04:30:00,36.4,25.0,30.15,NE,39,1.0,2.0,63,0.00,,,0.00,WeatherCatV1.10B1784,2013-01-20 09:30:00,
2013-01-20 04:35:00,36.4,24.3,30.15,NNE,25,0.0,2.0,61,0.00,,,0.00,WeatherCatV1.10B1784,2013-01-20 09:35:00,
2013-01-20 04:40:00,36.5,24.3,30.14,ENE,57,2.0,2.0,61,0.00,,,0.00,WeatherCatV1.10B1784,2013-01-20 09:40:00,
2013-01-20 04:45:00,36.7,24.1,30.15,ENE,66,1.0,2.0,60,0.00,,,0.00,WeatherCatV1.10B1784,2013-01-20 09:45:00,
2013-01-20 04:50:00,36.8,24.2,30.15,NE,38,1.0,2.0,60,0.00,,,0.00,WeatherCatV1.10B1784,2013-01-20 09:50:00,
2013-01-20 04:55:00,36.7,24.1,30.15,NE,49,1.0,3.0,60,0.00,,,0.00,WeatherCatV1.10B1784,2013-01-20 09:55:00,
2013-01-20 05:00:00,37.0,23.2,30.15,NNE,15,1.0,3.0,57,0.00,,,0.00,WeatherCatV1.10B1784,2013-01-20 10:00:00,
2013-01-20 05:05:00,37.4,22.3,30.15,ENE,78,3.0,5.0,54,0.00,,,0.00,WeatherCatV1.10B1784,2013-01-20 10:05:00,
2013-01-20 05:10:00,38.0,22.9,30.15,NE,49,0.0,2.0,54,0.00,,,0.00,WeatherCatV1.10B1784,2013-01-20 10:10:00,
2013-01-20 05:15:00,38.0,22.0,30.15,NE,56,2.0,2.0,52,0.00,,,0.00,WeatherCatV1.10B1784,2013-01-20 10:15:00,
2013-01-20 05:20:00,37.9,22.8,30.15,NNE,19,0.0,0.0,54,0.00,,,0.00,WeatherCatV1.10B1784,2013-01-20 10:20:00,
2013-01-20 05:25:00,38.1,21.6,30.15,East,88,0.0,2.0,51,0.00,,,0.00,WeatherCatV1.10B1784,2013-01-20 10:25:00,
2013-01-20 05:30:00,38.0,22.9,30.15,North,5,1.0,2.0,54,0.00,,,0.00,WeatherCatV1.10B1784,2013-01-20 10:30:00,
2013-01-20 05:35:00,38.1,20.6,30.15,SSE,157,2.0,2.0,49,0.00,,,0.00,WeatherCatV1.10B1784,2013-01-20 10:35:00,
2013-01-20 05:40:00,38.3,22.7,30.15,NNE,12,0.0,0.0,53,0.00,,,0.00,WeatherCatV1.10B1784,2013-01-20 10:40:00,
2013-01-20 05:45:00,38.1,20.6,30.15,North,9,1.0,1.0,49,0.00,,,0.00,WeatherCatV1.10B1784,2013-01-20 10:45:00,
2013-01-20 05:50:00,38.3,20.4,30.15,NE,36,1.0,1.0,48,0.00,,,0.00,WeatherCatV1.10B1784,2013-01-20 10:50:00,
2013-01-20 05:55:00,38.2,22.6,30.15,NE,48,0.0,0.0,53,0.00,,,0.00,WeatherCatV1.10B1784,2013-01-20 10:55:00,
2013-01-20 06:00:00,38.0,21.0,30.15,ENE,71,0.0,1.0,50,0.00,,,0.00,WeatherCatV1.10B1784,2013-01-20 11:00:00,
2013-01-20 06:05:00,37.8,22.2,30.15,NNW,342,1.0,2.0,53,0.00,,,0.00,WeatherCatV1.10B1784,2013-01-20 11:05:00,
2013-01-20 06:10:00,37.8,23.1,30.15,NE,44,0.0,1.0,55,0.00,,,0.00,WeatherCatV1.10B1784,2013-01-20 11:10:00,
2013-01-20 06:15:00,37.7,24.3,30.15,NE,43,0.0,2.0,58,0.00,,,0.00,WeatherCatV1.10B1784,2013-01-20 11:15:00,
2013-01-20 06:20:00,37.5,23.7,30.15,NNE,26,0.0,2.0,57,0.00,,,0.00,WeatherCatV1.10B1784,2013-01-20 11:20:00,
2013-01-20 06:25:00,37.4,23.6,30.15,NE,37,0.0,0.0,57,0.00,,,0.00,WeatherCatV1.10B1784,2013-01-20 11:25:00,
2013-01-20 06:30:00,37.3,23.9,30.15,NNE,33,0.0,1.0,58,0.00,,,0.00,WeatherCatV1.10B1784,2013-01-20 11:30:00,
2013-01-20 06:35:00,37.1,24.1,30.15,NNE,25,0.0,3.0,59,0.00,,,0.00,WeatherCatV1.10B1784,2013-01-20 11:35:00,
2013-01-20 06:40:00,37.3,24.7,30.15,NNE,31,0.0,1.0,60,0.00,,,0.00,WeatherCatV1.10B1784,2013-01-20 11:40:00,
2013-01-20 06:45:00,37.2,25.0,30.15,NNE,22,0.0,0.0,61,0.00,,,0.00,WeatherCatV1.10B1784,2013-01-20 11:45:00,
2013-01-20 06:50:00,37.1,24.9,30.15,NNE,22,0.0,0.0,61,0.00,,,0.00,WeatherCatV1.10B1784,2013-01-20 11:50:00,
2013-01-20 06:55:00,37.0,24.8,30.15,NNE,22,0.0,0.0,61,0.00,,,0.00,WeatherCatV1.10B1784,2013-01-20 11:55:00,
2013-01-20 07:00:00,36.9,25.1,30.15,NNE,22,0.0,0.0,62,0.00,,,0.00,WeatherCatV1.10B1784,2013-01-20 12:00:00,
2013-01-20 07:05:00,36.8,24.6,30.15,NNE,22,0.0,2.0,61,0.00,,,0.00,WeatherCatV1.10B1784,2013-01-20 12:05:00,
2013-01-20 07:10:00,36.9,25.5,30.16,NNE,22,0.0,1.0,63,0.00,,,0.00,WeatherCatV1.10B1784,2013-01-20 12:10:00,
2013-01-20 07:15:00,37.0,24.8,30.16,NNE,22,0.0,1.0,61,0.00,,,0.00,WeatherCatV1.10B1784,2013-01-20 12:15:00,
2013-01-20 07:20:00,37.1,25.3,30.16,NNE,22,1.0,1.0,62,0.00,,,0.00,WeatherCatV1.10B1784,2013-01-20 12:20:00,
2013-01-20 07:25:00,37.1,25.3,30.16,North,349,0.0,1.0,62,0.00,,,0.00,WeatherCatV1.10B1784,2013-01-20 12:25:00,
2013-01-20 07:30:00,37.4,25.6,30.16,NE,37,0.0,4.0,62,0.00,,,0.00,WeatherCatV1.10B1784,2013-01-20 12:30:00,
2013-01-20 07:35:00,37.5,26.1,30.16,NE,37,0.0,0.0,63,0.00,,,0.00,WeatherCatV1.10B1784,2013-01-20 12:35:00,
2013-01-20 07:40:00,37.6,26.5,30.16,NE,41,1.0,2.0,64,0.00,,,0.00,WeatherCatV1.10B1784,2013-01-20 12:40:00,
2013-01-20 07:45:00,37.7,26.6,30.16,NNW,333,0.0,1.0,64,0.00,,,0.00,WeatherCatV1.10B1784,2013-01-20 12:45:00,
2013-01-20 07:50:00,37.7,27.0,30.16,NW,323,0.0,0.0,65,0.00,,,0.00,WeatherCatV1.10B1784,2013-01-20 12:50:00,
2013-01-20 07:55:00,37.5,26.8,30.16,NNW,340,0.0,0.0,65,0.00,,,0.00,WeatherCatV1.10B1784,2013-01-20 12:55:00,
2013-01-20 08:00:00,37.4,26.7,30.16,WSW,248,2.0,3.0,65,0.00,,,0.00,WeatherCatV1.10B1784,2013-01-20 13:00:00,
2013-01-20 08:05:00,37.4,27.1,30.16,WNW,298,0.0,0.0,66,0.00,,,0.00,WeatherCatV1.10B1784,2013-01-20 13:05:00,
2013-01-20 08:10:00,37.3,27.4,30.16,WNW,298,0.0,0.0,67,0.00,,,0.00,WeatherCatV1.10B1784,2013-01-20 13:10:00,
2013-01-20 08:15:00,37.2,27.6,30.16,WNW,298,0.0,0.0,68,0.00,,,0.00,WeatherCatV1.10B1784,2013-01-20 13:15:00,
2013-01-20 08:20:00,37.2,27.3,30.16,WNW,298,0.0,0.0,67,0.00,,,0.00,WeatherCatV1.10B1784,2013-01-20 13:20:00,
2013-01-20 08:25:00,37.2,27.3,30.16,North,5,0.0,0.0,67,0.00,,,0.00,WeatherCatV1.10B1784,2013-01-20 13:25:00,
2013-01-20 08:30:00,37.4,27.5,30.16,ENE,64,0.0,0.0,67,0.00,,,0.00,WeatherCatV1.10B1784,2013-01-20 13:30:00,
2013-01-20 08:35:00,37.6,28.0,30.16,ENE,67,0.0,0.0,68,0.00,,,0.00,WeatherCatV1.10B1784,2013-01-20 13:35:00,
2013-01-20 08:40:00,37.9,27.9,30.16,SE,127,0.0,0.0,67,0.00,,,0.00,WeatherCatV1.10B1784,2013-01-20 13:40:00,
2013-01-20 08:45:00,38.3,28.3,30.17,SSW,202,0.0,3.0,67,0.00,,,0.00,WeatherCatV1.10B1784,2013-01-20 13:45:00,
2013-01-20 08:50:00,38.9,28.9,30.17,WSW,244,1.0,1.0,67,0.00,,,0.00,WeatherCatV1.10B1784,2013-01-20 13:50:00,
2013-01-20 08:55:00,39.5,28.3,30.17,SW,225,2.0,4.0,64,0.00,,,0.00,WeatherCatV1.10B1784,2013-01-20 13:55:00,
2013-01-20 09:00:00,40.2,29.0,30.17,SW,219,1.0,3.0,64,0.00,,,0.00,WeatherCatV1.10B1784,2013-01-20 14:00:00,
2013-01-20 09:05:00,40.6,29.0,30.17,SW,224,2.0,4.0,63,0.00,,,0.00,WeatherCatV1.10B1784,2013-01-20 14:05:00,
2013-01-20 09:10:00,40.9,28.9,30.17,SW,219,4.0,4.0,62,0.00,,,0.00,WeatherCatV1.10B1784,2013-01-20 14:10:00,
2013-01-20 09:15:00,41.5,29.1,30.17,SW,215,1.0,5.0,61,0.00,,,0.00,WeatherCatV1.10B1784,2013-01-20 14:15:00,
2013-01-20 09:20:00,41.9,29.4,30.17,WSW,249,0.0,4.0,61,0.00,,,0.00,WeatherCatV1.10B1784,2013-01-20 14:20:00,
2013-01-20 09:25:00,42.3,30.2,30.17,SSW,205,3.0,4.0,62,0.00,,,0.00,WeatherCatV1.10B1784,2013-01-20 14:25:00,
2013-01-20 09:30:00,42.7,30.2,30.17,SW,216,3.0,4.0,61,0.00,,,0.00,WeatherCatV1.10B1784,2013-01-20 14:30:00,
2013-01-20 09:35:00,43.0,30.1,30.17,South,180,1.0,4.0,60,0.00,,,0.00,WeatherCatV1.10B1784,2013-01-20 14:35:00,
2013-01-20 09:40:00,43.4,30.5,30.17,South,188,2.0,5.0,60,0.00,,,0.00,WeatherCatV1.10B1784,2013-01-20 14:40:00,
2013-01-20 09:45:00,43.7,30.3,30.17,WSW,245,3.0,5.0,59,0.00,,,0.00,WeatherCatV1.10B1784,2013-01-20 14:45:00,
2013-01-20 09:50:00,44.0,31.0,30.17,SW,227,4.0,4.0,60,0.00,,,0.00,WeatherCatV1.10B1784,2013-01-20 14:50:00,
2013-01-20 09:55:00,44.2,30.8,30.17,SSW,203,3.0,5.0,59,0.00,,,0.00,WeatherCatV1.10B1784,2013-01-20 14:55:00,
2013-01-20 10:00:00,44.4,31.0,30.17,SW,214,1.0,4.0,59,0.00,,,0.00,WeatherCatV1.10B1784,2013-01-20 15:00:00,
2013-01-20 10:05:00,44.7,32.1,30.17,SSW,203,1.0,4.0,61,0.00,,,0.00,WeatherCatV1.10B1784,2013-01-20 15:05:00,
2013-01-20 10:10:00,44.9,31.5,30.17,SSE,157,5.0,6.0,59,0.00,,,0.00,WeatherCatV1.10B1784,2013-01-20 15:10:00,
2013-01-20 10:15:00,45.2,31.3,30.17,South,186,1.0,2.0,58,0.00,,,0.00,WeatherCatV1.10B1784,2013-01-20 15:15:00,
2013-01-20 10:20:00,45.4,31.5,30.17,NW,315,0.0,4.0,58,0.00,,,0.00,WeatherCatV1.10B1784,2013-01-20 15:20:00,
2013-01-20 10:25:00,45.6,31.7,30.17,South,171,4.0,5.0,58,0.00,,,0.00,WeatherCatV1.10B1784,2013-01-20 15:25:00,
2013-01-20 10:30:00,45.8,31.9,30.17,ESE,117,1.0,5.0,58,0.00,,,0.00,WeatherCatV1.10B1784,2013-01-20 15:30:00,
2013-01-20 10:35:00,46.1,32.2,30.17,WSW,238,1.0,4.0,58,0.00,,,0.00,WeatherCatV1.10B1784,2013-01-20 15:35:00,
2013-01-20 10:40:00,46.4,32.0,30.17,West,275,2.0,5.0,57,0.00,,,0.00,WeatherCatV1.10B1784,2013-01-20 15:40:00,
2013-01-20 10:45:00,46.7,32.3,30.17,SSE,155,4.0,6.0,57,0.00,,,0.00,WeatherCatV1.10B1784,2013-01-20 15:45:00,
2013-01-20 10:50:00,46.7,31.8,30.17,SE,138,3.0,6.0,56,0.00,,,0.00,WeatherCatV1.10B1784,2013-01-20 15:50:00,
2013-01-20 10:55:00,47.0,32.1,30.17,NE,36,0.0,4.0,56,0.00,,,0.00,WeatherCatV1.10B1784,2013-01-20 15:55:00,
2013-01-20 11:00:00,47.4,32.9,30.17,SSW,208,2.0,3.0,57,0.00,,,0.00,WeatherCatV1.10B1784,2013-01-20 16:00:00,
2013-01-20 11:05:00,47.9,32.5,30.16,WSW,247,0.0,5.0,55,0.00,,,0.00,WeatherCatV1.10B1784,2013-01-20 16:05:00,
2013-01-20 11:10:00,48.2,33.2,30.16,WSW,239,1.0,4.0,56,0.00,,,0.00,WeatherCatV1.10B1784,2013-01-20 16:10:00,
2013-01-20 11:15:00,48.6,34.1,30.16,SSE,166,3.0,5.0,57,0.00,,,0.00,WeatherCatV1.10B1784,2013-01-20 16:15:00,
2013-01-20 11:20:00,48.9,33.5,30.16,SSW,193,2.0,3.0,55,0.00,,,0.00,WeatherCatV1.10B1784,2013-01-20 16:20:00,
2013-01-20 11:25:00,48.9,33.5,30.16,North,9,0.0,10.0,55,0.00,,,0.00,WeatherCatV1.10B1784,2013-01-20 16:25:00,
2013-01-20 11:30:00,49.2,33.7,30.16,SE,125,1.0,3.0,55,0.00,,,0.00,WeatherCatV1.10B1784,2013-01-20 16:30:00,
2013-01-20 11:35:00,49.7,33.7,30.16,SSE,167,3.0,3.0,54,0.00,,,0.00,WeatherCatV1.10B1784,2013-01-20 16:35:00,
2013-01-20 11:40:00,50.0,34.5,30.15,SSW,192,4.0,4.0,55,0.00,,,0.00,WeatherCatV1.10B1784,2013-01-20 16:40:00,
2013-01-20 11:45:00,50.3,33.8,30.15,North,5,0.0,3.0,53,0.00,,,0.00,WeatherCatV1.10B1784,2013-01-20 16:45:00,
2013-01-20 11:50:00,50.4,33.4,30.15,SSW,202,4.0,6.0,52,0.00,,,0.00,WeatherCatV1.10B1784,2013-01-20 16:50:00,
2013-01-20 11:55:00,50.5,33.1,30.15,East,101,2.0,9.0,51,0.00,,,0.00,WeatherCatV1.10B1784,2013-01-20 16:55:00,
2013-01-20 12:00:00,50.4,33.4,30.15,South,175,1.0,3.0,52,0.00,,,0.00,WeatherCatV1.10B1784,2013-01-20 17:00:00,
2013-01-20 12:05:00,50.9,33.4,30.14,WSW,248,3.0,5.0,51,0.00,,,0.00,WeatherCatV1.10B1784,2013-01-20 17:05:00,
2013-01-20 12:10:00,51.3,33.8,30.14,South,187,2.0,4.0,51,0.00,,,0.00,WeatherCatV1.10B1784,2013-01-20 17:10:00,
2013-01-20 12:15:00,51.3,33.3,30.14,ENE,68,1.0,7.0,50,0.00,,,0.00,WeatherCatV1.10B1784,2013-01-20 17:15:00,
2013-01-20 12:20:00,51.3,33.8,30.14,SSE,151,0.0,5.0,51,0.00,,,0.00,WeatherCatV1.10B1784,2013-01-20 17:20:00,
2013-01-20 12:25:00,51.5,34.0,30.14,South,178,4.0,4.0,51,0.00,,,0.00,WeatherCatV1.10B1784,2013-01-20 17:25:00,
2013-01-20 12:30:00,51.7,34.2,30.13,South,171,2.0,3.0,51,0.00,,,0.00,WeatherCatV1.10B1784,2013-01-20 17:30:00,
2013-01-20 12:35:00,52.2,34.6,30.13,ENE,63,9.0,9.0,51,0.00,,,0.00,WeatherCatV1.10B1784,2013-01-20 17:35:00,
2013-01-20 12:40:00,52.2,34.1,30.13,South,182,4.0,5.0,50,0.00,,,0.00,WeatherCatV1.10B1784,2013-01-20 17:40:00,
2013-01-20 12:45:00,52.1,33.0,30.13,North,11,1.0,7.0,48,0.00,,,0.00,WeatherCatV1.10B1784,2013-01-20 17:45:00,
2013-01-20 12:50:00,52.3,33.7,30.12,SW,236,3.0,5.0,49,0.00,,,0.00,WeatherCatV1.10B1784,2013-01-20 17:50:00,
2013-01-20 12:55:00,52.2,34.6,30.12,ESE,123,2.0,4.0,51,0.00,,,0.00,WeatherCatV1.10B1784,2013-01-20 17:55:00,
2013-01-20 13:00:00,52.6,34.5,30.12,ENE,57,1.0,2.0,50,0.00,,,0.00,WeatherCatV1.10B1784,2013-01-20 18:00:00,
2013-01-20 13:05:00,53.0,34.4,30.12,SE,145,2.0,3.0,49,0.00,,,0.00,WeatherCatV1.10B1784,2013-01-20 18:05:00,
2013-01-20 13:10:00,53.2,34.0,30.12,East,80,5.0,7.0,48,0.00,,,0.00,WeatherCatV1.10B1784,2013-01-20 18:10:00,
2013-01-20 13:15:00,53.0,33.3,30.12,East,90,1.0,3.0,47,0.00,,,0.00,WeatherCatV1.10B1784,2013-01-20 18:15:00,
2013-01-20 13:20:00,53.2,34.5,30.11,SSE,150,1.0,6.0,49,0.00,,,0.00,WeatherCatV1.10B1784,2013-01-20 18:20:00,
2013-01-20 13:25:00,53.4,33.1,30.11,ENE,67,0.0,7.0,46,0.00,,,0.00,WeatherCatV1.10B1784,2013-01-20 18:25:00,
2013-01-20 13:30:00,53.4,34.7,30.11,SSE,158,0.0,3.0,49,0.00,,,0.00,WeatherCatV1.10B1784,2013-01-20 18:30:00,
2013-01-20 13:35:00,53.8,33.5,30.11,ESE,109,2.0,8.0,46,0.00,,,0.00,WeatherCatV1.10B1784,2013-01-20 18:35:00,
2013-01-20 13:40:00,54.2,33.3,30.11,SSE,148,0.0,5.0,45,0.00,,,0.00,WeatherCatV1.10B1784,2013-01-20 18:40:00,
2013-01-20 13:45:00,54.3,33.4,30.11,SSE,162,2.0,5.0,45,0.00,,,0.00,WeatherCatV1.10B1784,2013-01-20 18:45:00,
2013-01-20 13:50:00,54.4,33.5,30.11,NE,37,0.0,3.0,45,0.00,,,0.00,WeatherCatV1.10B1784,2013-01-20 18:50:00,
2013-01-20 13:55:00,54.8,33.3,30.10,ESE,115,3.0,8.0,44,0.00,,,0.00,WeatherCatV1.10B1784,2013-01-20 18:55:00,
2013-01-20 14:00:00,54.8,33.3,30.10,SSW,196,0.0,4.0,44,0.00,,,0.00,WeatherCatV1.10B1784,2013-01-20 19:00:00,
2013-01-20 14:05:00,54.5,33.0,30.10,SW,216,4.0,5.0,44,0.00,,,0.00,WeatherCatV1.10B1784,2013-01-20 19:05:00,
2013-01-20 14:10:00,54.2,32.8,30.10,West,278,1.0,5.0,44,0.00,,,0.00,WeatherCatV1.10B1784,2013-01-20 19:10:00,
2013-01-20 14:15:00,54.0,32.6,30.10,South,186,4.0,4.0,44,0.00,,,0.00,WeatherCatV1.10B1784,2013-01-20 19:15:00,
2013-01-20 14:20:00,54.2,32.2,30.10,NE,54,1.0,7.0,43,0.00,,,0.00,WeatherCatV1.10B1784,2013-01-20 19:20:00,
2013-01-20 14:25:00,54.3,31.7,30.10,SSE,165,1.0,8.0,42,0.00,,,0.00,WeatherCatV1.10B1784,2013-01-20 19:25:00,
2013-01-20 14:30:00,54.6,33.1,30.10,WSW,244,1.0,3.0,44,0.00,,,0.00,WeatherCatV1.10B1784,2013-01-20 19:30:00,
2013-01-20 14:35:00,54.8,33.3,30.10,ESE,103,3.0,5.0,44,0.00,,,0.00,WeatherCatV1.10B1784,2013-01-20 19:35:00,
2013-01-20 14:40:00,54.4,32.4,30.10,WSW,252,2.0,5.0,43,0.00,,,0.00,WeatherCatV1.10B1784,2013-01-20 19:40:00,
2013-01-20 14:45:00,54.4,31.8,30.10,SSE,163,0.0,2.0,42,0.00,,,0.00,WeatherCatV1.10B1784,2013-01-20 19:45:00,
2013-01-20 14:50:00,54.8,32.2,30.10,South,183,2.0,4.0,42,0.00,,,0.00,WeatherCatV1.10B1784,2013-01-20 19:50:00,
2013-01-20 14:55:00,55.0,31.7,30.09,East,98,1.0,5.0,41,0.00,,,0.00,WeatherCatV1.10B1784,2013-01-20 19:55:00,
2013-01-20 15:00:00,55.3,33.2,30.09,WSW,255,1.0,2.0,43,0.00,,,0.00,WeatherCatV1.10B1784,2013-01-20 20:00:00,
2013-01-20 15:05:00,55.7,33.0,30.09,South,184,3.0,3.0,42,0.00,,,0.00,WeatherCatV1.10B1784,2013-01-20 20:05:00,
2013-01-20 15:10:00,56.2,32.8,30.09,North,355,4.0,6.0,41,0.00,,,0.00,WeatherCatV1.10B1784,2013-01-20 20:10:00,
2013-01-20 15:15:00,56.1,30.8,30.09,South,177,0.0,8.0,38,0.00,,,0.00,WeatherCatV1.10B1784,2013-01-20 20:15:00,
2013-01-20 15:20:00,56.0,31.4,30.09,South,171,2.0,3.0,39,0.00,,,0.00,WeatherCatV1.10B1784,2013-01-20 20:20:00,
2013-01-20 15:25:00,55.9,31.3,30.09,SSW,206,1.0,2.0,39,0.00,,,0.00,WeatherCatV1.10B1784,2013-01-20 20:25:00,
2013-01-20 15:30:00,55.6,31.7,30.09,ENE,72,0.0,7.0,40,0.00,,,0.00,WeatherCatV1.10B1784,2013-01-20 20:30:00,
2013-01-20 15:35:00,55.4,32.1,30.09,North,351,2.0,8.0,41,0.00,,,0.00,WeatherCatV1.10B1784,2013-01-20 20:35:00,
2013-01-20 15:40:00,55.2,32.5,30.10,SSW,206,2.0,2.0,42,0.00,,,0.00,WeatherCatV1.10B1784,2013-01-20 20:40:00,
2013-01-20 15:45:00,55.0,32.3,30.10,SE,132,1.0,2.0,42,0.00,,,0.00,WeatherCatV1.10B1784,2013-01-20 20:45:00,
2013-01-20 15:50:00,54.9,32.2,30.10,SSW,207,2.0,7.0,42,0.00,,,0.00,WeatherCatV1.10B1784,2013-01-20 20:50:00,
2013-01-20 15:55:00,54.8,32.2,30.10,SW,219,4.0,4.0,42,0.00,,,0.00,WeatherCatV1.10B1784,2013-01-20 20:55:00,
2013-01-20 16:00:00,54.3,31.7,30.10,SSE,159,2.0,4.0,42,0.00,,,0.00,WeatherCatV1.10B1784,2013-01-20 21:00:00,
2013-01-20 16:05:00,54.2,32.8,30.10,SSW,209,1.0,2.0,44,0.00,,,0.00,WeatherCatV1.10B1784,2013-01-20 21:05:00,
2013-01-20 16:10:00,54.0,32.6,30.10,SSW,196,2.0,5.0,44,0.00,,,0.00,WeatherCatV1.10B1784,2013-01-20 21:10:00,
2013-01-20 16:15:00,53.9,33.1,30.10,SSE,165,3.0,3.0,45,0.00,,,0.00,WeatherCatV1.10B1784,2013-01-20 21:15:00,
2013-01-20 16:20:00,53.7,32.3,30.10,ESE,122,0.0,3.0,44,0.00,,,0.00,WeatherCatV1.10B1784,2013-01-20 21:20:00,
2013-01-20 16:25:00,53.9,34.1,30.10,SSW,194,0.0,1.0,47,0.00,,,0.00,WeatherCatV1.10B1784,2013-01-20 21:25:00,
2013-01-20 16:30:00,53.9,32.5,30.11,South,188,3.0,4.0,44,0.00,,,0.00,WeatherCatV1.10B1784,2013-01-20 21:30:00,
2013-01-20 16:35:00,53.6,33.3,30.11,SSE,151,1.0,2.0,46,0.00,,,0.00,WeatherCatV1.10B1784,2013-01-20 21:35:00,
2013-01-20 16:40:00,53.2,31.9,30.11,WSW,256,3.0,6.0,44,0.00,,,0.00,WeatherCatV1.10B1784,2013-01-20 21:40:00,
2013-01-20 16:45:00,53.0,32.2,30.11,WSW,250,0.0,3.0,45,0.00,,,0.00,WeatherCatV1.10B1784,2013-01-20 21:45:00,
2013-01-20 16:50:00,52.4,32.8,30.12,South,173,3.0,3.0,47,0.00,,,0.00,WeatherCatV1.10B1784,2013-01-20 21:50:00,
2013-01-20 16:55:00,51.9,32.8,30.12,NNE,26,4.0,4.0,48,0.00,,,0.00,WeatherCatV1.10B1784,2013-01-20 21:55:00,
2013-01-20 17:00:00,51.4,32.4,30.11,South,178,0.0,2.0,48,0.00,,,0.00,WeatherCatV1.10B1784,2013-01-20 22:00:00,
2013-01-20 17:05:00,50.9,31.9,30.12,South,179,1.0,3.0,48,0.00,,,0.00,WeatherCatV1.10B1784,2013-01-20 22:05:00,
2013-01-20 17:10:00,50.3,31.9,30.12,SSW,213,0.0,2.0,49,0.00,,,0.00,WeatherCatV1.10B1784,2013-01-20 22:10:00,
2013-01-20 17:15:00,50.0,31.6,30.12,SSW,210,1.0,1.0,49,0.00,,,0.00,WeatherCatV1.10B1784,2013-01-20 22:15:00,
2013-01-20 17:20:00,49.9,33.5,30.12,South,183,0.0,0.0,53,0.00,,,0.00,WeatherCatV1.10B1784,2013-01-20 22:20:00,
2013-01-20 17:25:00,49.5,32.1,30.12,SW,225,1.0,2.0,51,0.00,,,0.00,WeatherCatV1.10B1784,2013-01-20 22:25:00,
2013-01-20 17:30:00,48.9,31.1,30.12,SSW,202,1.0,2.0,50,0.00,,,0.00,WeatherCatV1.10B1784,2013-01-20 22:30:00,
2013-01-20 17:35:00,48.6,31.8,30.13,SSW,205,0.0,1.0,52,0.00,,,0.00,WeatherCatV1.10B1784,2013-01-20 22:35:00,
2013-01-20 17:40:00,48.3,32.9,30.13,NNW,327,0.0,0.0,55,0.00,,,0.00,WeatherCatV1.10B1784,2013-01-20 22:40:00,
2013-01-20 17:45:00,48.1,33.6,30.13,NNW,327,0.0,0.0,57,0.00,,,0.00,WeatherCatV1.10B1784,2013-01-20 22:45:00,
2013-01-20 17:50:00,47.7,32.3,30.13,SE,126,0.0,0.0,55,0.00,,,0.00,WeatherCatV1.10B1784,2013-01-20 22:50:00,
2013-01-20 17:55:00,47.4,32.5,30.13,ENE,78,0.0,0.0,56,0.00,,,0.00,WeatherCatV1.10B1784,2013-01-20 22:55:00,
2013-01-20 18:00:00,47.0,32.6,30.14,East,79,0.0,0.0,57,0.00,,,0.00,WeatherCatV1.10B1784,2013-01-20 23:00:00,
2013-01-20 18:05:00,46.6,33.5,30.13,East,79,0.0,0.0,60,0.00,,,0.00,WeatherCatV1.10B1784,2013-01-20 23:05:00,
2013-01-20 18:10:00,46.2,33.1,30.14,East,79,0.0,0.0,60,0.00,,,0.00,WeatherCatV1.10B1784,2013-01-20 23:10:00,
2013-01-20 18:15:00,45.9,32.0,30.14,ENE,73,0.0,0.0,58,0.00,,,0.00,WeatherCatV1.10B1784,2013-01-20 23:15:00,
2013-01-20 18:20:00,45.4,32.7,30.13,ENE,72,0.0,0.0,61,0.00,,,0.00,WeatherCatV1.10B1784,2013-01-20 23:20:00,
2013-01-20 18:25:00,45.0,32.0,30.13,ENE,68,0.0,0.0,60,0.00,,,0.00,WeatherCatV1.10B1784,2013-01-20 23:25:00,
2013-01-20 18:30:00,44.6,32.4,30.14,ENE,68,0.0,0.0,62,0.00,,,0.00,WeatherCatV1.10B1784,2013-01-20 23:30:00,
2013-01-20 18:35:00,44.2,31.2,30.14,NNE,18,0.0,1.0,60,0.00,,,0.00,WeatherCatV1.10B1784,2013-01-20 23:35:00,
2013-01-20 18:40:00,43.9,31.3,30.14,NNE,18,0.0,0.0,61,0.00,,,0.00,WeatherCatV1.10B1784,2013-01-20 23:40:00,
2013-01-20 18:45:00,43.6,31.8,30.14,NNE,18,0.0,0.0,63,0.00,,,0.00,WeatherCatV1.10B1784,2013-01-20 23:45:00,
2013-01-20 18:50:00,43.3,31.6,30.14,NNE,18,0.0,0.0,63,0.00,,,0.00,WeatherCatV1.10B1784,2013-01-20 23:50:00,
2013-01-20 18:55:00,43.0,31.7,30.14,East,81,0.0,0.0,64,0.00,,,0.00,WeatherCatV1.10B1784,2013-01-20 23:55:00,
2013-01-20 19:00:00,42.8,31.5,30.14,ENE,59,0.0,1.0,64,0.00,,,0.00,WeatherCatV1.10B1784,2013-01-21 00:00:00,
2013-01-20 19:05:00,42.5,31.2,30.14,East,80,0.0,1.0,64,0.00,,,0.00,WeatherCatV1.10B1784,2013-01-21 00:05:00,
2013-01-20 19:10:00,42.3,31.0,30.14,ENE,68,0.0,1.0,64,0.00,,,0.00,WeatherCatV1.10B1784,2013-01-21 00:10:00,
2013-01-20 19:15:00,42.0,31.5,30.14,ENE,68,0.0,0.0,66,0.00,,,0.00,WeatherCatV1.10B1784,2013-01-21 00:15:00,
2013-01-20 19:20:00,41.7,30.8,30.14,NE,51,0.0,0.0,65,0.00,,,0.00,WeatherCatV1.10B1784,2013-01-21 00:20:00,
2013-01-20 19:25:00,41.6,31.5,30.14,NE,51,0.0,0.0,67,0.00,,,0.00,WeatherCatV1.10B1784,2013-01-21 00:25:00,
2013-01-20 19:30:00,41.4,31.3,30.14,NE,48,0.0,0.0,67,0.00,,,0.00,WeatherCatV1.10B1784,2013-01-21 00:30:00,
2013-01-20 19:35:00,41.2,31.1,30.14,NE,48,0.0,0.0,67,0.00,,,0.00,WeatherCatV1.10B1784,2013-01-21 00:35:00,
2013-01-20 19:40:00,41.0,30.5,30.14,NE,42,0.0,0.0,66,0.00,,,0.00,WeatherCatV1.10B1784,2013-01-21 00:40:00,
2013-01-20 19:45:00,40.9,30.8,30.14,ESE,119,0.0,0.0,67,0.00,,,0.00,WeatherCatV1.10B1784,2013-01-21 00:45:00,
2013-01-20 19:50:00,40.8,31.1,30.14,NNE,30,0.0,0.0,68,0.00,,,0.00,WeatherCatV1.10B1784,2013-01-21 00:50:00,
2013-01-20 19:55:00,40.7,30.2,30.14,NNE,30,0.0,0.0,66,0.00,,,0.00,WeatherCatV1.10B1784,2013-01-21 00:55:00,
2013-01-20 20:00:00,40.7,30.6,30.14,East,98,0.0,0.0,67,0.00,,,0.00,WeatherCatV1.10B1784,2013-01-21 01:00:00,
2013-01-20 20:05:00,40.7,30.2,30.14,SSE,163,0.0,1.0,66,0.00,,,0.00,WeatherCatV1.10B1784,2013-01-21 01:05:00,
2013-01-20 20:10:00,40.7,31.0,30.14,South,173,1.0,1.0,68,0.00,,,0.00,WeatherCatV1.10B1784,2013-01-21 01:10:00,
2013-01-20 20:15:00,40.6,30.9,30.14,SSW,196,0.0,3.0,68,0.00,,,0.00,WeatherCatV1.10B1784,2013-01-21 01:15:00,
2013-01-20 20:20:00,40.5,31.1,30.14,WNW,294,0.0,0.0,69,0.00,,,0.00,WeatherCatV1.10B1784,2013-01-21 01:20:00,
2013-01-20 20:25:00,40.5,30.8,30.14,SW,219,1.0,2.0,68,0.00,,,0.00,WeatherCatV1.10B1784,2013-01-21 01:25:00,
2013-01-20 20:30:00,40.5,30.4,30.14,SW,219,0.0,1.0,67,0.00,,,0.00,WeatherCatV1.10B1784,2013-01-21 01:30:00,
2013-01-20 20:35:00,40.4,30.3,30.14,SSE,161,2.0,3.0,67,0.00,,,0.00,WeatherCatV1.10B1784,2013-01-21 01:35:00,
2013-01-20 20:40:00,40.6,29.8,30.14,SSW,203,2.0,2.0,65,0.00,,,0.00,WeatherCatV1.10B1784,2013-01-21 01:40:00,
2013-01-20 20:45:00,40.7,30.6,30.14,West,264,0.0,1.0,67,0.00,,,0.00,WeatherCatV1.10B1784,2013-01-21 01:45:00,
2013-01-20 20:50:00,40.8,30.0,30.14,SSW,212,0.0,1.0,65,0.00,,,0.00,WeatherCatV1.10B1784,2013-01-21 01:50:00,
2013-01-20 20:55:00,40.9,30.4,30.14,SW,221,0.0,2.0,66,0.00,,,0.00,WeatherCatV1.10B1784,2013-01-21 01:55:00,
2013-01-20 21:00:00,40.7,30.6,30.13,SW,221,0.0,0.0,67,0.00,,,0.00,WeatherCatV1.10B1784,2013-01-21 02:00:00,
2013-01-20 21:05:00,40.4,30.7,30.13,NE,45,0.0,1.0,68,0.00,,,0.00,WeatherCatV1.10B1784,2013-01-21 02:05:00,
2013-01-20 21:10:00,39.9,30.2,30.13,NNE,30,1.0,1.0,68,0.00,,,0.00,WeatherCatV1.10B1784,2013-01-21 02:10:00,
2013-01-20 21:15:00,39.6,30.3,30.13,NNE,13,0.0,2.0,69,0.00,,,0.00,WeatherCatV1.10B1784,2013-01-21 02:15:00,
2013-01-20 21:20:00,39.3,30.0,30.13,North,0,0.0,0.0,69,0.00,,,0.00,WeatherCatV1.10B1784,2013-01-21 02:20:00,
2013-01-20 21:25:00,39.1,30.2,30.13,West,279,0.0,1.0,70,0.00,,,0.00,WeatherCatV1.10B1784,2013-01-21 02:25:00,
2013-01-20 21:30:00,39.0,30.1,30.13,West,279,0.0,0.0,70,0.00,,,0.00,WeatherCatV1.10B1784,2013-01-21 02:30:00,
2013-01-20 21:35:00,38.9,30.0,30.13,NNE,19,0.0,0.0,70,0.00,,,0.00,WeatherCatV1.10B1784,2013-01-21 02:35:00,
2013-01-20 21:40:00,38.8,29.9,30.12,ENE,76,0.0,0.0,70,0.00,,,0.00,WeatherCatV1.10B1784,2013-01-21 02:40:00,
2013-01-20 21:45:00,38.7,29.8,30.13,NE,35,0.0,0.0,70,0.00,,,0.00,WeatherCatV1.10B1784,2013-01-21 02:45:00,
2013-01-20 21:50:00,38.6,30.0,30.13,NNE,22,0.0,1.0,71,0.00,,,0.00,WeatherCatV1.10B1784,2013-01-21 02:50:00,
2013-01-20 21:55:00,38.5,29.9,30.12,NNE,29,0.0,0.0,71,0.00,,,0.00,WeatherCatV1.10B1784,2013-01-21 02:55:00,
2013-01-20 22:00:00,38.5,29.9,30.12,NNE,29,0.0,0.0,71,0.00,,,0.00,WeatherCatV1.10B1784,2013-01-21 03:00:00,
2013-01-20 22:05:00,38.4,29.8,30.12,SW,234,0.0,1.0,71,0.00,,,0.00,WeatherCatV1.10B1784,2013-01-21 03:05:00,
2013-01-20 22:10:00,38.4,29.8,30.12,East,92,0.0,0.0,71,0.00,,,0.00,WeatherCatV1.10B1784,2013-01-21 03:10:00,
2013-01-20 22:15:00,38.3,29.7,30.12,East,91,0.0,0.0,71,0.00,,,0.00,WeatherCatV1.10B1784,2013-01-21 03:15:00,
2013-01-20 22:20:00,38.3,29.4,30.12,NE,46,0.0,0.0,70,0.00,,,0.00,WeatherCatV1.10B1784,2013-01-21 03:20:00,
2013-01-20 22:25:00,38.2,30.0,30.12,NE,46,0.0,1.0,72,0.00,,,0.00,WeatherCatV1.10B1784,2013-01-21 03:25:00,
2013-01-20 22:30:00,38.0,29.8,30.12,NE,48,1.0,2.0,72,0.00,,,0.00,WeatherCatV1.10B1784,2013-01-21 03:30:00,
2013-01-20 22:35:00,37.9,29.7,30.12,NE,48,0.0,0.0,72,0.00,,,0.00,WeatherCatV1.10B1784,2013-01-21 03:35:00,
2013-01-20 22:40:00,37.8,29.9,30.12,NE,48,0.0,0.0,73,0.00,,,0.00,WeatherCatV1.10B1784,2013-01-21 03:40:00,
2013-01-20 22:45:00,37.7,30.2,30.12,NE,48,0.0,0.0,74,0.00,,,0.00,WeatherCatV1.10B1784,2013-01-21 03:45:00,
2013-01-20 22:50:00,37.6,30.1,30.13,NE,48,0.0,0.0,74,0.00,,,0.00,WeatherCatV1.10B1784,2013-01-21 03:50:00,
2013-01-20 22:55:00,37.5,29.6,30.12,NE,48,0.0,0.0,73,0.00,,,0.00,WeatherCatV1.10B1784,2013-01-21 03:55:00,
2013-01-20 23:00:00,37.4,29.5,30.13,NE,48,0.0,0.0,73,0.00,,,0.00,WeatherCatV1.10B1784,2013-01-21 04:00:00,
2013-01-20 23:05:00,37.4,29.2,30.12,NE,48,0.0,0.0,72,0.00,,,0.00,WeatherCatV1.10B1784,2013-01-21 04:05:00,
2013-01-20 23:10:00,37.3,29.1,30.13,NE,52,0.0,1.0,72,0.00,,,0.00,WeatherCatV1.10B1784,2013-01-21 04:10:00,
2013-01-20 23:15:00,37.2,29.4,30.13,NE,52,0.0,0.0,73,0.00,,,0.00,WeatherCatV1.10B1784,2013-01-21 04:15:00,
2013-01-20 23:25:00,37.0,29.5,30.13,NE,52,0.0,0.0,74,0.00,,,0.00,WeatherCatV1.10B1784,2013-01-21 04:25:00,
2013-01-20 23:30:00,36.9,29.4,30.13,NE,52,0.0,0.0,74,0.00,,,0.00,WeatherCatV1.10B1784,2013-01-21 04:30:00,
2013-01-20 23:35:00,36.9,29.7,30.13,NE,52,1.0,1.0,75,0.00,,,0.00,WeatherCatV1.10B1784,2013-01-21 04:35:00,
2013-01-20 23:40:00,36.8,29.6,30.13,NE,52,0.0,1.0,75,0.00,,,0.00,WeatherCatV1.10B1784,2013-01-21 04:40:00,
2013-01-20 23:45:00,36.6,29.4,30.13,NE,52,0.0,0.0,75,0.00,,,0.00,WeatherCatV1.10B1784,2013-01-21 04:45:00,
2013-01-20 23:50:00,36.6,29.8,30.12,NE,52,0.0,0.0,76,0.00,,,0.00,WeatherCatV1.10B1784,2013-01-21 04:50:00,
2013-01-20 23:55:00,36.5,29.7,30.12,NE,52,0.0,0.0,76,0.00,,,0.00,WeatherCatV1.10B1784,2013-01-21 04:55:00,